createdAt,value
2022-10-14T00:00:22.966Z,12.7
2022-10-14T00:01:23.630Z,12.8
2022-10-14T00:02:24.191Z,12.8
2022-10-14T00:03:24.787Z,12.8
2022-10-14T00:04:25.383Z,12.8
2022-10-14T00:05:25.979Z,12.8
2022-10-14T00:06:26.579Z,12.8
2022-10-14T00:07:27.172Z,12.8
2022-10-14T00:08:27.771Z,12.7
2022-10-14T00:09:28.367Z,12.8
2022-10-14T00:10:28.963Z,12.8
2022-10-14T00:11:29.560Z,12.8
2022-10-14T00:12:30.162Z,12.8
2022-10-14T00:13:30.756Z,12.7
2022-10-14T00:14:31.352Z,12.8
2022-10-14T00:15:31.949Z,12.8
2022-10-14T00:16:32.549Z,12.7
2022-10-14T00:17:33.146Z,12.7
2022-10-14T00:18:33.742Z,12.7
2022-10-14T00:19:34.343Z,12.7
2022-10-14T00:20:34.937Z,12.7
2022-10-14T00:21:35.537Z,12.7
2022-10-14T00:22:36.134Z,12.7
2022-10-14T00:23:36.739Z,12.7
2022-10-14T00:24:37.350Z,12.7
2022-10-14T00:25:37.946Z,12.7
2022-10-14T00:26:38.544Z,12.7
2022-10-14T00:27:39.144Z,12.7
2022-10-14T00:28:39.798Z,12.7
2022-10-14T00:29:40.383Z,12.7
2022-10-14T00:30:40.978Z,12.7
2022-10-14T00:31:41.577Z,12.7
2022-10-14T00:32:42.174Z,12.7
2022-10-14T00:33:42.773Z,12.7
2022-10-14T00:34:43.369Z,12.7
2022-10-14T00:35:43.967Z,12.7
2022-10-14T00:36:44.585Z,12.6
2022-10-14T00:37:45.165Z,12.7
2022-10-14T00:38:45.758Z,12.6
2022-10-14T00:39:46.356Z,12.7
2022-10-14T00:40:46.953Z,12.7
2022-10-14T00:41:47.549Z,12.7
2022-10-14T00:42:48.149Z,12.7
2022-10-14T00:43:48.762Z,12.7
2022-10-14T00:44:49.364Z,12.7
2022-10-14T00:45:49.954Z,12.7
2022-10-14T00:46:50.548Z,12.7
2022-10-14T00:47:51.145Z,12.7
2022-10-14T00:48:51.746Z,12.7
2022-10-14T00:49:52.341Z,12.7
2022-10-14T00:50:52.936Z,12.6
2022-10-14T00:51:53.534Z,12.6
2022-10-14T00:52:54.129Z,12.7
2022-10-14T00:53:54.726Z,12.7
2022-10-14T00:54:55.321Z,12.7
2022-10-14T00:55:55.919Z,12.7
2022-10-14T00:56:56.517Z,12.6
2022-10-14T00:57:57.115Z,12.7
2022-10-14T00:58:57.712Z,12.7
2022-10-14T00:59:58.309Z,12.6
2022-10-14T01:00:59.007Z,12.7
2022-10-14T01:01:59.601Z,12.7
2022-10-14T01:03:00.218Z,12.7
2022-10-14T01:04:00.818Z,12.7
2022-10-14T01:05:01.413Z,12.7
2022-10-14T01:06:02.012Z,12.7
2022-10-14T01:07:02.607Z,12.6
2022-10-14T01:08:03.205Z,12.6
2022-10-14T01:09:03.799Z,12.6
2022-10-14T01:10:04.400Z,12.7
2022-10-14T01:11:04.993Z,12.6
2022-10-14T01:12:27.630Z,12.7
2022-10-14T01:13:07.181Z,12.6
2022-10-14T01:14:07.778Z,12.6
2022-10-14T01:15:08.371Z,12.6
2022-10-14T01:16:08.969Z,12.7
2022-10-14T01:17:09.564Z,12.7
2022-10-14T01:18:10.161Z,12.6
2022-10-14T01:19:10.757Z,12.6
2022-10-14T01:20:11.354Z,12.7
2022-10-14T01:21:11.950Z,12.6
2022-10-14T01:22:12.547Z,12.6
2022-10-14T01:23:13.158Z,12.6
2022-10-14T01:24:13.744Z,12.7
2022-10-14T01:25:14.339Z,12.6
2022-10-14T01:26:14.937Z,12.7
2022-10-14T01:27:15.531Z,12.6
2022-10-14T01:28:16.146Z,12.6
2022-10-14T01:29:16.724Z,12.6
2022-10-14T01:30:17.320Z,12.6
2022-10-14T01:31:17.918Z,12.6
2022-10-14T01:32:18.753Z,12.6
2022-10-14T01:33:19.510Z,12.5
2022-10-14T01:34:20.110Z,12.5
2022-10-14T01:35:20.705Z,12.5
2022-10-14T01:36:21.327Z,12.5
2022-10-14T01:37:21.920Z,12.5
2022-10-14T01:38:22.518Z,12.5
2022-10-14T01:39:23.116Z,12.5
2022-10-14T01:40:23.713Z,12.5
2022-10-14T01:41:24.311Z,12.5
2022-10-14T01:42:24.959Z,12.5
2022-10-14T01:43:25.508Z,12.5
2022-10-14T01:44:26.124Z,12.5
2022-10-14T01:45:26.722Z,12.5
2022-10-14T01:46:27.321Z,12.5
2022-10-14T01:47:27.937Z,12.5
2022-10-14T01:48:28.584Z,12.5
2022-10-14T01:49:29.182Z,12.5
2022-10-14T01:50:29.779Z,12.5
2022-10-14T01:51:30.375Z,12.5
2022-10-14T01:52:30.971Z,12.5
2022-10-14T01:53:31.569Z,12.5
2022-10-14T01:54:32.165Z,12.5
2022-10-14T01:55:32.762Z,12.5
2022-10-14T01:56:36.955Z,12.5
2022-10-14T01:57:34.951Z,12.5
2022-10-14T01:58:35.548Z,12.5
2022-10-14T01:59:36.144Z,12.5
2022-10-14T02:00:36.741Z,12.5
2022-10-14T02:01:37.362Z,12.6
2022-10-14T02:02:37.935Z,12.5
2022-10-14T02:03:38.528Z,12.5
2022-10-14T02:04:39.145Z,12.5
2022-10-14T02:05:39.742Z,12.5
2022-10-14T02:06:40.339Z,12.4
2022-10-14T02:07:40.933Z,12.5
2022-10-14T02:08:41.532Z,12.4
2022-10-14T02:09:42.128Z,12.4
2022-10-14T02:10:42.725Z,12.5
2022-10-14T02:11:43.319Z,12.5
2022-10-14T02:12:43.915Z,12.4
2022-10-14T02:13:44.510Z,12.5
2022-10-14T02:14:45.107Z,12.4
2022-10-14T02:15:45.705Z,12.4
2022-10-14T02:16:46.299Z,12.4
2022-10-14T02:17:46.898Z,12.4
2022-10-14T02:18:47.494Z,12.4
2022-10-14T02:19:48.091Z,12.5
2022-10-14T02:20:48.688Z,12.4
2022-10-14T02:21:49.283Z,12.4
2022-10-14T02:22:49.887Z,12.5
2022-10-14T02:23:50.477Z,12.4
2022-10-14T02:24:51.077Z,12.5
2022-10-14T02:25:51.671Z,12.4
2022-10-14T02:26:52.269Z,12.5
2022-10-14T02:27:52.866Z,12.5
2022-10-14T02:28:53.521Z,12.4
2022-10-14T02:29:54.083Z,12.3
2022-10-14T02:30:54.681Z,12.4
2022-10-14T02:31:55.277Z,12.3
2022-10-14T02:32:55.874Z,12.3
2022-10-14T02:33:56.468Z,12.4
2022-10-14T02:34:57.064Z,12.3
2022-10-14T02:35:57.658Z,12.3
2022-10-14T02:36:58.258Z,12.3
2022-10-14T02:37:58.873Z,12.3
2022-10-14T02:38:59.470Z,12.2
2022-10-14T02:40:00.072Z,12.2
2022-10-14T02:41:00.663Z,12.2
2022-10-14T02:42:01.259Z,12.3
2022-10-14T02:43:01.858Z,12.3
2022-10-14T02:44:02.453Z,12.2
2022-10-14T02:45:03.052Z,12.3
2022-10-14T02:46:03.651Z,12.3
2022-10-14T02:47:04.249Z,12.3
2022-10-14T02:48:04.845Z,12.3
2022-10-14T02:49:05.443Z,12.3
2022-10-14T02:50:06.060Z,12.3
2022-10-14T02:51:06.654Z,12.3
2022-10-14T02:52:07.247Z,12.2
2022-10-14T02:53:07.844Z,12.3
2022-10-14T02:54:08.438Z,12.3
2022-10-14T02:55:09.035Z,12.3
2022-10-14T02:56:09.631Z,12.3
2022-10-14T02:57:10.229Z,12.3
2022-10-14T02:58:10.823Z,12.4
2022-10-14T02:59:11.439Z,12.3
2022-10-14T03:00:12.113Z,12.4
2022-10-14T03:01:12.667Z,12.3
2022-10-14T03:02:13.376Z,12.3
2022-10-14T03:03:13.945Z,12.3
2022-10-14T03:04:14.539Z,12.3
2022-10-14T03:05:15.142Z,12.3
2022-10-14T03:06:15.755Z,12.2
2022-10-14T03:07:16.352Z,12.3
2022-10-14T03:08:16.951Z,12.3
2022-10-14T03:09:17.546Z,12.3
2022-10-14T03:10:18.144Z,12.4
2022-10-14T03:11:18.744Z,12.4
2022-10-14T03:12:19.614Z,12.3
2022-10-14T03:13:20.352Z,12.3
2022-10-14T03:14:20.948Z,12.4
2022-10-14T03:15:21.562Z,12.2
2022-10-14T03:16:22.163Z,12.3
2022-10-14T03:17:22.760Z,12.3
2022-10-14T03:18:23.376Z,12.3
2022-10-14T03:19:23.976Z,12.2
2022-10-14T03:20:24.570Z,12.3
2022-10-14T03:21:25.168Z,12.3
2022-10-14T03:22:25.767Z,12.3
2022-10-14T03:23:26.383Z,12.4
2022-10-14T03:24:27.000Z,12.3
2022-10-14T03:25:27.599Z,12.3
2022-10-14T03:26:28.196Z,12.3
2022-10-14T03:27:28.794Z,12.3
2022-10-14T03:28:29.467Z,12.3
2022-10-14T03:29:30.039Z,12.2
2022-10-14T03:30:30.635Z,12.3
2022-10-14T03:31:31.233Z,12.3
2022-10-14T03:32:31.829Z,12.3
2022-10-14T03:33:33.894Z,12.3
2022-10-14T03:34:34.022Z,12.3
2022-10-14T03:35:34.639Z,12.3
2022-10-14T03:36:35.230Z,12.3
2022-10-14T03:37:35.826Z,12.3
2022-10-14T03:38:36.422Z,12.3
2022-10-14T03:39:37.023Z,12.3
2022-10-14T03:40:37.616Z,12.3
2022-10-14T03:41:38.211Z,12.3
2022-10-14T03:42:38.809Z,12.3
2022-10-14T03:43:39.406Z,12.3
2022-10-14T03:44:40.001Z,12.3
2022-10-14T03:45:40.597Z,12.3
2022-10-14T03:46:41.196Z,12.3
2022-10-14T03:47:41.792Z,12.3
2022-10-14T03:48:42.390Z,12.4
2022-10-14T03:49:42.992Z,12.2
2022-10-14T03:50:43.585Z,12.4
2022-10-14T03:51:44.188Z,12.4
2022-10-14T03:52:46.841Z,12.3
2022-10-14T03:53:46.376Z,12.3
2022-10-14T03:54:46.973Z,12.3
2022-10-14T03:55:47.572Z,12.4
2022-10-14T03:56:48.168Z,12.3
2022-10-14T03:57:48.764Z,12.3
2022-10-14T03:58:49.360Z,12.4
2022-10-14T03:59:49.957Z,12.3
2022-10-14T04:00:50.550Z,12.4
2022-10-14T04:01:51.177Z,12.4
2022-10-14T04:02:51.761Z,12.4
2022-10-14T04:03:52.359Z,12.3
2022-10-14T04:04:55.956Z,12.3
2022-10-14T04:05:54.545Z,12.3
2022-10-14T04:06:55.140Z,12.3
2022-10-14T04:07:55.735Z,12.4
2022-10-14T04:08:56.329Z,12.3
2022-10-14T04:09:56.930Z,12.4
2022-10-14T04:10:57.522Z,12.4
2022-10-14T04:11:58.120Z,12.3
2022-10-14T04:12:58.716Z,12.4
2022-10-14T04:13:59.343Z,12.3
2022-10-14T04:14:59.929Z,12.3
2022-10-14T04:16:00.527Z,12.3
2022-10-14T04:17:01.124Z,12.3
2022-10-14T04:18:01.726Z,12.4
2022-10-14T04:19:02.319Z,12.3
2022-10-14T04:20:02.917Z,12.4
2022-10-14T04:21:03.515Z,12.3
2022-10-14T04:22:04.114Z,12.3
2022-10-14T04:23:04.716Z,12.3
2022-10-14T04:24:08.405Z,12.2
2022-10-14T04:25:06.897Z,12.4
2022-10-14T04:26:07.515Z,12.4
2022-10-14T04:27:08.112Z,12.4
2022-10-14T04:28:08.711Z,12.4
2022-10-14T04:29:09.330Z,12.3
2022-10-14T04:30:09.926Z,12.4
2022-10-14T04:31:10.538Z,12.3
2022-10-14T04:32:11.145Z,12.4
2022-10-14T04:33:11.742Z,12.4
2022-10-14T04:34:12.343Z,12.4
2022-10-14T04:35:12.939Z,12.4
2022-10-14T04:36:13.536Z,12.3
2022-10-14T04:37:14.132Z,12.3
2022-10-14T04:38:14.730Z,12.3
2022-10-14T04:39:15.329Z,12.4
2022-10-14T04:40:15.928Z,12.3
2022-10-14T04:41:16.526Z,12.3
2022-10-14T04:42:17.122Z,12.3
2022-10-14T04:43:17.720Z,12.3
2022-10-14T04:44:18.318Z,12.3
2022-10-14T04:45:18.916Z,12.3
2022-10-14T04:46:19.512Z,12.4
2022-10-14T04:47:20.109Z,12.3
2022-10-14T04:48:20.707Z,12.3
2022-10-14T04:49:21.303Z,12.3
2022-10-14T04:50:21.900Z,12.4
2022-10-14T04:51:22.499Z,12.3
2022-10-14T04:52:23.372Z,12.3
2022-10-14T04:53:24.273Z,12.2
2022-10-14T04:54:24.885Z,12.4
2022-10-14T04:55:25.485Z,12.3
2022-10-14T04:56:26.083Z,12.3
2022-10-14T04:57:26.704Z,12.4
2022-10-14T04:58:27.305Z,12.3
2022-10-14T04:59:27.926Z,12.3
2022-10-14T05:00:28.500Z,12.3
2022-10-14T05:01:33.639Z,12.4
2022-10-14T05:02:30.690Z,12.3
2022-10-14T05:03:31.287Z,12.3
2022-10-14T05:04:31.889Z,12.3
2022-10-14T05:05:32.485Z,12.3
2022-10-14T05:06:33.105Z,12.3
2022-10-14T05:07:33.743Z,12.3
2022-10-14T05:08:34.338Z,12.4
2022-10-14T05:09:34.941Z,12.4
2022-10-14T05:10:35.534Z,12.2
2022-10-14T05:11:36.134Z,12.2
2022-10-14T05:12:36.730Z,12.4
2022-10-14T05:13:37.356Z,12.3
2022-10-14T05:14:37.946Z,12.3
2022-10-14T05:15:38.545Z,12.2
2022-10-14T05:16:39.143Z,12.3
2022-10-14T05:17:39.740Z,12.3
2022-10-14T05:18:40.360Z,12.3
2022-10-14T05:19:40.956Z,12.3
2022-10-14T05:20:41.553Z,12.3
2022-10-14T05:21:42.153Z,12.3
2022-10-14T05:22:42.751Z,12.3
2022-10-14T05:23:43.349Z,12.2
2022-10-14T05:24:43.968Z,12.3
2022-10-14T05:25:44.566Z,12.2
2022-10-14T05:26:45.184Z,12.3
2022-10-14T05:27:45.784Z,12.3
2022-10-14T05:28:46.422Z,12.3
2022-10-14T05:29:46.979Z,12.3
2022-10-14T05:30:47.597Z,12.3
2022-10-14T05:31:48.194Z,12.2
2022-10-14T05:32:48.793Z,12.3
2022-10-14T05:33:49.391Z,12.3
2022-10-14T05:34:49.991Z,12.2
2022-10-14T05:35:59.365Z,12.2
2022-10-14T05:36:52.177Z,12.3
2022-10-14T05:37:52.778Z,12.3
2022-10-14T05:38:53.377Z,12.3
2022-10-14T05:39:53.978Z,12.3
2022-10-14T05:40:54.574Z,12.2
2022-10-14T05:41:55.177Z,12.3
2022-10-14T05:42:55.774Z,12.3
2022-10-14T05:43:56.374Z,12.2
2022-10-14T05:44:56.970Z,12.2
2022-10-14T05:45:57.569Z,12.3
2022-10-14T05:46:58.166Z,12.3
2022-10-14T05:47:58.765Z,12.3
2022-10-14T05:48:59.363Z,12.3
2022-10-14T05:49:59.961Z,12.2
2022-10-14T05:51:00.558Z,12.3
2022-10-14T05:52:01.159Z,12.3
2022-10-14T05:53:01.782Z,12.3
2022-10-14T05:54:02.380Z,12.3
2022-10-14T05:55:02.996Z,12.3
2022-10-14T05:56:03.597Z,12.3
2022-10-14T05:57:04.208Z,12.3
2022-10-14T05:58:04.798Z,12.4
2022-10-14T05:59:05.399Z,12.3
2022-10-14T06:00:06.004Z,12.3
2022-10-14T06:01:06.623Z,12.3
2022-10-14T06:02:07.221Z,12.3
2022-10-14T06:03:07.847Z,12.3
2022-10-14T06:04:08.452Z,12.3
2022-10-14T06:05:09.051Z,12.3
2022-10-14T06:06:09.653Z,12.3
2022-10-14T06:07:10.258Z,12.3
2022-10-14T06:08:10.871Z,12.3
2022-10-14T06:09:11.749Z,12.3
2022-10-14T06:10:12.305Z,12.2
2022-10-14T06:11:12.905Z,12.3
2022-10-14T06:12:13.506Z,12.2
2022-10-14T06:13:14.112Z,12.3
2022-10-14T06:14:14.706Z,12.3
2022-10-14T06:15:15.307Z,12.3
2022-10-14T06:16:15.907Z,12.3
2022-10-14T06:17:17.699Z,12.3
2022-10-14T06:18:18.103Z,12.3
2022-10-14T06:19:18.703Z,12.2
2022-10-14T06:20:19.309Z,12.3
2022-10-14T06:21:19.907Z,12.3
2022-10-14T06:22:20.751Z,12.4
2022-10-14T06:23:21.491Z,12.3
2022-10-14T06:24:22.090Z,12.3
2022-10-14T06:25:22.691Z,12.3
2022-10-14T06:26:23.292Z,12.4
2022-10-14T06:27:23.892Z,12.3
2022-10-14T06:28:24.519Z,12.2
2022-10-14T06:29:25.108Z,12.3
2022-10-14T06:30:25.715Z,12.3
2022-10-14T06:31:31.261Z,12.4
2022-10-14T06:32:27.910Z,12.4
2022-10-14T06:33:28.531Z,12.3
2022-10-14T06:34:29.134Z,12.4
2022-10-14T06:35:29.739Z,12.3
2022-10-14T06:36:30.338Z,12.3
2022-10-14T06:37:30.939Z,12.4
2022-10-14T06:38:31.551Z,12.4
2022-10-14T06:39:32.144Z,12.3
2022-10-14T06:40:32.750Z,12.3
2022-10-14T06:41:33.351Z,12.4
2022-10-14T06:42:33.952Z,12.4
2022-10-14T06:43:34.556Z,12.4
2022-10-14T06:44:35.159Z,12.3
2022-10-14T06:45:35.760Z,12.5
2022-10-14T06:46:36.370Z,12.4
2022-10-14T06:47:36.967Z,12.4
2022-10-14T06:48:37.569Z,12.4
2022-10-14T06:49:38.171Z,12.4
2022-10-14T06:50:38.777Z,12.4
2022-10-14T06:51:39.378Z,12.5
2022-10-14T06:52:39.982Z,12.5
2022-10-14T06:53:40.585Z,12.6
2022-10-14T06:54:45.930Z,12.5
2022-10-14T06:55:42.783Z,12.5
2022-10-14T06:56:43.387Z,12.5
2022-10-14T06:57:43.991Z,12.5
2022-10-14T06:58:44.594Z,12.5
2022-10-14T06:59:45.195Z,12.6
2022-10-14T07:00:48.314Z,12.5
2022-10-14T07:01:46.469Z,12.4
2022-10-14T07:02:47.048Z,12.4
2022-10-14T07:03:49.045Z,12.5
2022-10-14T07:04:49.245Z,12.5
2022-10-14T07:05:49.844Z,12.7
2022-10-14T07:06:50.449Z,12.6
2022-10-14T07:07:51.113Z,12.6
2022-10-14T07:08:51.715Z,12.5
2022-10-14T07:09:52.317Z,12.6
2022-10-14T07:10:52.921Z,12.6
2022-10-14T07:11:53.523Z,12.6
2022-10-14T07:12:54.131Z,12.7
2022-10-14T07:13:54.728Z,12.7
2022-10-14T07:14:55.331Z,12.8
2022-10-14T07:15:55.934Z,12.7
2022-10-14T07:16:56.557Z,12.9
2022-10-14T07:17:57.158Z,12.8
2022-10-14T07:18:57.761Z,12.8
2022-10-14T07:19:58.381Z,12.8
2022-10-14T07:20:58.987Z,12.8
2022-10-14T07:21:59.588Z,12.9
2022-10-14T07:23:00.192Z,12.9
2022-10-14T07:24:00.794Z,12.9
2022-10-14T07:25:01.400Z,12.9
2022-10-14T07:26:02.000Z,13.0
2022-10-14T07:28:04.080Z,13.0
2022-10-14T07:29:04.740Z,12.9
2022-10-14T07:30:05.337Z,12.9
2022-10-14T07:31:05.923Z,12.8
2022-10-14T07:32:06.527Z,13.0
2022-10-14T07:33:07.127Z,13.0
2022-10-14T07:34:07.730Z,13.0
2022-10-14T07:35:08.331Z,13.0
2022-10-14T07:36:08.983Z,13.2
2022-10-14T07:37:09.557Z,13.0
2022-10-14T07:38:10.159Z,13.1
2022-10-14T07:39:10.760Z,13.0
2022-10-14T07:40:11.362Z,13.1
2022-10-14T07:41:11.965Z,13.1
2022-10-14T07:42:12.605Z,13.1
2022-10-14T07:43:13.189Z,13.1
2022-10-14T07:44:13.790Z,13.1
2022-10-14T07:45:14.410Z,13.2
2022-10-14T07:46:15.013Z,13.1
2022-10-14T07:47:15.613Z,13.1
2022-10-14T07:48:19.694Z,13.2
2022-10-14T07:49:17.814Z,13.2
2022-10-14T07:50:18.415Z,13.1
2022-10-14T07:51:19.040Z,13.1
2022-10-14T07:52:19.662Z,13.2
2022-10-14T07:53:20.281Z,13.1
2022-10-14T07:54:20.902Z,13.1
2022-10-14T07:55:21.507Z,13.2
2022-10-14T07:56:22.112Z,13.2
2022-10-14T07:57:23.083Z,13.3
2022-10-14T07:58:23.859Z,13.4
2022-10-14T07:59:24.462Z,13.4
2022-10-14T08:00:25.064Z,13.5
2022-10-14T08:01:25.690Z,13.5
2022-10-14T08:02:26.273Z,13.5
2022-10-14T08:03:26.876Z,13.5
2022-10-14T08:04:27.478Z,13.5
2022-10-14T08:05:43.309Z,13.5
2022-10-14T08:06:29.678Z,13.5
2022-10-14T08:07:30.284Z,13.5
2022-10-14T08:08:30.885Z,13.6
2022-10-14T08:09:31.490Z,13.5
2022-10-14T08:10:32.092Z,13.7
2022-10-14T08:11:32.715Z,13.6
2022-10-14T08:12:33.338Z,13.5
2022-10-14T08:13:33.943Z,13.6
2022-10-14T08:14:34.827Z,13.7
2022-10-14T08:15:35.451Z,13.5
2022-10-14T08:16:36.062Z,13.5
2022-10-14T08:17:36.674Z,13.5
2022-10-14T08:18:37.275Z,13.6
2022-10-14T08:19:37.899Z,13.7
2022-10-14T08:20:38.505Z,13.6
2022-10-14T08:21:39.127Z,13.6
2022-10-14T08:22:39.728Z,13.7
2022-10-14T08:23:40.332Z,13.8
2022-10-14T08:24:40.937Z,13.9
2022-10-14T08:25:41.539Z,14.0
2022-10-14T08:26:42.163Z,14.1
2022-10-14T08:27:42.785Z,14.1
2022-10-14T08:28:43.436Z,14.2
2022-10-14T08:29:44.005Z,14.2
2022-10-14T08:30:44.609Z,14.2
2022-10-14T08:31:45.212Z,14.3
2022-10-14T08:32:45.834Z,14.6
2022-10-14T08:33:46.439Z,14.7
2022-10-14T08:34:47.043Z,14.8
2022-10-14T08:35:51.624Z,15.0
2022-10-14T08:36:49.241Z,15.1
2022-10-14T08:37:49.841Z,15.1
2022-10-14T08:38:50.442Z,15.0
2022-10-14T08:39:51.044Z,14.9
2022-10-14T08:40:54.919Z,14.9
2022-10-14T08:41:53.261Z,14.8
2022-10-14T08:42:53.863Z,14.8
2022-10-14T08:43:54.470Z,14.7
2022-10-14T08:44:55.065Z,14.8
2022-10-14T08:45:55.668Z,14.8
2022-10-14T08:46:56.269Z,14.8
2022-10-14T08:47:56.875Z,14.7
2022-10-14T08:48:57.473Z,14.8
2022-10-14T08:49:58.077Z,14.8
2022-10-14T08:50:58.677Z,14.7
2022-10-14T08:51:59.277Z,14.8
2022-10-14T08:52:59.879Z,14.9
2022-10-14T08:54:00.479Z,14.9
2022-10-14T08:55:01.079Z,14.9
2022-10-14T08:56:01.679Z,15.0
2022-10-14T08:57:02.347Z,15.1
2022-10-14T08:58:05.017Z,15.2
2022-10-14T08:59:04.516Z,15.3
2022-10-14T09:00:05.121Z,15.3
2022-10-14T09:01:09.809Z,15.3
2022-10-14T09:02:07.311Z,15.2
2022-10-14T09:03:08.003Z,15.3
2022-10-14T09:04:08.645Z,15.3
2022-10-14T09:05:09.241Z,15.3
2022-10-14T09:06:09.839Z,15.5
2022-10-14T09:07:10.440Z,15.4
2022-10-14T09:08:11.042Z,15.4
2022-10-14T09:09:11.642Z,15.4
2022-10-14T09:10:12.263Z,15.4
2022-10-14T09:11:12.864Z,15.4
2022-10-14T09:12:13.463Z,15.3
2022-10-14T09:13:14.063Z,15.4
2022-10-14T09:14:14.664Z,15.5
2022-10-14T09:15:15.263Z,15.4
2022-10-14T09:16:15.863Z,15.5
2022-10-14T09:17:16.466Z,15.6
2022-10-14T09:18:17.067Z,15.5
2022-10-14T09:19:17.691Z,15.5
2022-10-14T09:20:18.284Z,15.3
2022-10-14T09:21:27.833Z,15.4
2022-10-14T09:22:20.809Z,15.4
2022-10-14T09:23:21.501Z,15.5
2022-10-14T09:24:22.127Z,15.6
2022-10-14T09:25:22.703Z,15.7
2022-10-14T09:26:23.303Z,15.9
2022-10-14T09:27:24.380Z,16.1
2022-10-14T09:28:25.261Z,16.4
2022-10-14T09:29:25.830Z,16.6
2022-10-14T09:30:26.430Z,16.8
2022-10-14T09:31:27.122Z,16.9
2022-10-14T09:32:27.651Z,17.1
2022-10-14T09:33:28.250Z,17.1
2022-10-14T09:34:28.854Z,17.2
2022-10-14T09:35:29.453Z,17.1
2022-10-14T09:36:30.055Z,17.2
2022-10-14T09:37:30.653Z,17.2
2022-10-14T09:38:31.254Z,17.2
2022-10-14T09:39:31.874Z,17.1
2022-10-14T09:40:32.476Z,16.9
2022-10-14T09:41:33.078Z,16.9
2022-10-14T09:42:33.677Z,16.8
2022-10-14T09:43:34.313Z,16.7
2022-10-14T09:44:34.874Z,16.3
2022-10-14T09:45:35.473Z,16.2
2022-10-14T09:46:36.073Z,16.1
2022-10-14T09:47:36.674Z,16.1
2022-10-14T09:48:37.276Z,16.2
2022-10-14T09:49:37.896Z,16.1
2022-10-14T09:50:38.497Z,16.2
2022-10-14T09:51:39.100Z,16.4
2022-10-14T09:52:39.700Z,16.4
2022-10-14T09:53:40.301Z,16.3
2022-10-14T09:54:40.944Z,16.3
2022-10-14T09:55:41.514Z,16.3
2022-10-14T09:56:42.294Z,16.4
2022-10-14T09:57:42.727Z,16.4
2022-10-14T09:58:43.327Z,16.4
2022-10-14T09:59:43.930Z,16.4
2022-10-14T10:00:44.528Z,16.3
2022-10-14T10:01:45.128Z,16.4
2022-10-14T10:02:45.727Z,16.5
2022-10-14T10:03:46.450Z,16.5
2022-10-14T10:04:46.954Z,16.5
2022-10-14T10:05:47.566Z,16.6
2022-10-14T10:06:48.165Z,16.6
2022-10-14T10:07:48.767Z,16.4
2022-10-14T10:08:49.363Z,16.3
2022-10-14T10:09:49.967Z,16.2
2022-10-14T10:10:50.566Z,16.1
2022-10-14T10:11:51.165Z,16.2
2022-10-14T10:12:51.764Z,16.3
2022-10-14T10:13:52.365Z,16.5
2022-10-14T10:14:52.965Z,16.5
2022-10-14T10:15:53.567Z,16.4
2022-10-14T10:16:54.188Z,16.4
2022-10-14T10:17:54.788Z,16.5
2022-10-14T10:18:55.386Z,16.5
2022-10-14T10:19:55.987Z,16.4
2022-10-14T10:20:56.628Z,16.5
2022-10-14T10:21:57.230Z,16.5
2022-10-14T10:22:57.831Z,16.8
2022-10-14T10:23:58.454Z,17.0
2022-10-14T10:24:59.055Z,17.1
2022-10-14T10:25:59.655Z,17.1
2022-10-14T10:27:00.254Z,17.1
2022-10-14T10:28:00.858Z,17.3
2022-10-14T10:29:01.516Z,17.5
2022-10-14T10:30:02.095Z,17.5
2022-10-14T10:31:02.694Z,17.6
2022-10-14T10:32:03.299Z,17.5
2022-10-14T10:33:03.901Z,17.5
2022-10-14T10:34:04.503Z,17.0
2022-10-14T10:35:05.106Z,16.9
2022-10-14T10:36:05.737Z,17.0
2022-10-14T10:37:06.322Z,17.1
2022-10-14T10:38:06.998Z,17.0
2022-10-14T10:39:07.597Z,17.2
2022-10-14T10:40:08.201Z,17.4
2022-10-14T10:41:08.801Z,17.3
2022-10-14T10:42:09.401Z,17.5
2022-10-14T10:43:10.001Z,17.6
2022-10-14T10:44:10.602Z,17.6
2022-10-14T10:45:11.205Z,17.6
2022-10-14T10:46:11.808Z,17.5
2022-10-14T10:47:12.409Z,17.6
2022-10-14T10:48:13.033Z,17.5
2022-10-14T10:49:13.629Z,17.4
2022-10-14T10:50:14.235Z,17.4
2022-10-14T10:51:14.829Z,17.6
2022-10-14T10:52:17.468Z,17.4
2022-10-14T10:53:17.029Z,17.3
2022-10-14T10:54:17.651Z,17.2
2022-10-14T10:55:18.251Z,17.2
2022-10-14T10:56:18.851Z,17.1
2022-10-14T10:57:19.641Z,16.9
2022-10-14T10:58:20.326Z,17.0
2022-10-14T10:59:20.932Z,17.0
2022-10-14T11:00:21.562Z,17.0
2022-10-14T11:01:22.218Z,16.8
2022-10-14T11:02:23.047Z,16.7
2022-10-14T11:03:23.805Z,16.5
2022-10-14T11:04:24.404Z,16.5
2022-10-14T11:05:25.070Z,16.4
2022-10-14T11:06:25.638Z,16.3
2022-10-14T11:07:28.059Z,16.3
2022-10-14T11:08:27.868Z,16.2
2022-10-14T11:09:28.431Z,16.2
2022-10-14T11:10:29.054Z,16.3
2022-10-14T11:11:29.655Z,16.3
2022-10-14T11:12:30.257Z,16.4
2022-10-14T11:13:33.078Z,16.6
2022-10-14T11:14:32.473Z,16.7
2022-10-14T11:15:33.072Z,16.8
2022-10-14T11:16:33.673Z,17.0
2022-10-14T11:17:34.338Z,17.2
2022-10-14T11:18:35.181Z,17.3
2022-10-14T11:19:35.782Z,17.4
2022-10-14T11:20:36.384Z,17.8
2022-10-14T11:21:36.985Z,17.9
2022-10-14T11:22:37.589Z,18.3
2022-10-14T11:23:38.190Z,18.4
2022-10-14T11:24:38.791Z,18.5
2022-10-14T11:25:39.412Z,18.7
2022-10-14T11:26:40.017Z,18.8
2022-10-14T11:27:40.615Z,18.9
2022-10-14T11:28:41.261Z,18.9
2022-10-14T11:29:41.831Z,18.9
2022-10-14T11:30:42.451Z,18.8
2022-10-14T11:31:43.050Z,18.5
2022-10-14T11:32:43.652Z,18.6
2022-10-14T11:33:44.273Z,18.5
2022-10-14T11:34:44.875Z,18.3
2022-10-14T11:35:45.475Z,18.3
2022-10-14T11:36:46.079Z,18.2
2022-10-14T11:37:46.675Z,18.2
2022-10-14T11:38:47.276Z,18.1
2022-10-14T11:39:47.878Z,18.2
2022-10-14T11:40:48.478Z,18.2
2022-10-14T11:41:49.081Z,18.3
2022-10-14T11:42:49.702Z,18.3
2022-10-14T11:43:50.300Z,18.2
2022-10-14T11:44:50.901Z,18.2
2022-10-14T11:45:51.500Z,18.3
2022-10-14T11:46:52.103Z,18.2
2022-10-14T11:47:52.700Z,18.3
2022-10-14T11:48:53.300Z,18.0
2022-10-14T11:49:53.907Z,18.1
2022-10-14T11:50:54.502Z,17.9
2022-10-14T11:51:55.101Z,17.9
2022-10-14T11:52:55.701Z,17.9
2022-10-14T11:53:56.301Z,17.7
2022-10-14T11:54:56.901Z,17.7
2022-10-14T11:55:57.503Z,17.6
2022-10-14T11:56:58.102Z,17.6
2022-10-14T11:57:58.701Z,17.7
2022-10-14T11:58:59.303Z,17.7
2022-10-14T11:59:59.905Z,17.7
2022-10-14T12:01:00.526Z,17.5
2022-10-14T12:02:01.121Z,17.5
2022-10-14T12:03:01.823Z,17.4
2022-10-14T12:04:02.418Z,17.5
2022-10-14T12:05:03.014Z,17.5
2022-10-14T12:06:03.620Z,17.5
2022-10-14T12:07:04.233Z,17.6
2022-10-14T12:08:04.830Z,17.5
2022-10-14T12:09:05.431Z,17.6
2022-10-14T12:10:06.031Z,17.5
2022-10-14T12:11:06.633Z,17.7
2022-10-14T12:12:07.233Z,17.8
2022-10-14T12:13:07.835Z,17.9
2022-10-14T12:14:08.452Z,17.8
2022-10-14T12:15:09.053Z,17.9
2022-10-14T12:16:09.653Z,17.9
2022-10-14T12:17:13.532Z,17.9
2022-10-14T12:18:11.847Z,17.7
2022-10-14T12:19:12.445Z,17.6
2022-10-14T12:20:13.113Z,17.6
2022-10-14T12:21:13.785Z,17.5
2022-10-14T12:22:14.299Z,17.6
2022-10-14T12:23:14.902Z,17.5
2022-10-14T12:24:15.501Z,17.5
2022-10-14T12:25:16.102Z,17.6
2022-10-14T12:26:16.702Z,17.5
2022-10-14T12:27:17.303Z,17.5
2022-10-14T12:28:17.939Z,17.4
2022-10-14T12:29:18.524Z,17.3
2022-10-14T12:30:19.124Z,17.4
2022-10-14T12:31:19.745Z,17.4
2022-10-14T12:32:20.795Z,17.4
2022-10-14T12:33:23.011Z,17.4
2022-10-14T12:34:23.204Z,17.2
2022-10-14T12:35:23.805Z,17.1
2022-10-14T12:36:24.441Z,17.2
2022-10-14T12:37:28.846Z,17.1
2022-10-14T12:38:26.599Z,17.1
2022-10-14T12:39:27.201Z,17.1
2022-10-14T12:40:27.800Z,17.2
2022-10-14T12:41:28.402Z,17.1
2022-10-14T12:42:29.000Z,17.1
2022-10-14T12:43:29.603Z,17.1
2022-10-14T12:44:30.222Z,17.1
2022-10-14T12:45:30.881Z,17.1
2022-10-14T12:46:31.441Z,17.0
2022-10-14T12:47:32.042Z,17.0
2022-10-14T12:48:32.663Z,17.1
2022-10-14T12:49:33.283Z,17.2
2022-10-14T12:50:33.883Z,17.3
2022-10-14T12:51:34.485Z,17.3
2022-10-14T12:52:35.085Z,17.4
2022-10-14T12:53:35.685Z,17.6
2022-10-14T12:54:36.285Z,17.7
2022-10-14T12:55:36.891Z,17.7
2022-10-14T12:56:37.489Z,17.8
2022-10-14T12:57:41.491Z,18.0
2022-10-14T12:58:39.704Z,18.0
2022-10-14T12:59:40.305Z,18.0
2022-10-14T13:00:40.904Z,18.2
2022-10-14T13:01:41.606Z,18.2
2022-10-14T13:02:42.177Z,18.1
2022-10-14T13:03:43.172Z,18.2
2022-10-14T13:04:43.770Z,17.9
2022-10-14T13:05:44.371Z,17.8
2022-10-14T13:06:44.968Z,17.6
2022-10-14T13:07:46.401Z,17.5
2022-10-14T13:08:47.158Z,17.4
2022-10-14T13:09:47.758Z,17.2
2022-10-14T13:10:48.428Z,17.2
2022-10-14T13:11:49.022Z,17.2
2022-10-14T13:12:49.641Z,17.2
2022-10-14T13:13:50.241Z,17.1
2022-10-14T13:14:50.858Z,16.9
2022-10-14T13:15:51.454Z,17.0
2022-10-14T13:16:52.056Z,17.0
2022-10-14T13:17:52.653Z,17.0
2022-10-14T13:18:53.254Z,17.0
2022-10-14T13:19:53.874Z,17.1
2022-10-14T13:20:54.476Z,17.2
2022-10-14T13:21:55.073Z,17.3
2022-10-14T13:22:55.673Z,17.3
2022-10-14T13:23:56.273Z,17.4
2022-10-14T13:24:56.873Z,17.4
2022-10-14T13:25:57.653Z,17.5
2022-10-14T13:26:58.234Z,17.6
2022-10-14T13:27:58.833Z,17.6